| time (UTC) | temp C | wind direction | speed KPH | gust KPH | rain 1hr cm | rain 24hr cm | rain mn cm | humidity % | barometer mb |
| 20260507023530 | 7 | 116 | 0.0 | 1.6 | 0.00 | 0.00 | 0.00 | 87 | 1013.7 |
| 20260507022523 | 6 | 0.0 | 0.0 | 0.00 | 0.00 | 0.00 | 87 | 1013.5 | |
| 20260507021530 | 7 | 0.0 | 0.0 | 0.00 | 0.00 | 0.00 | 88 | 1013.5 | |
| 20260507020523 | 6 | 0.0 | 0.0 | 0.00 | 0.00 | 0.00 | 88 | 1013.5 | |
| 20260507015530 | 6 | 0.0 | 0.0 | 0.00 | 0.00 | 0.00 | 88 | 1013.5 | |
| 20260507014524 | 6 | 0.0 | 0.0 | 0.00 | 0.00 | 0.00 | 88 | 1013.3 | |
| 20260507013530 | 7 | 79 | 0.0 | 1.6 | 0.00 | 0.00 | 0.00 | 87 | 1013.3 |
| 20260507012606 | 6 | 0.0 | 0.0 | 0.00 | 0.00 | 0.00 | 87 | 1013.2 | |
| 20260507011710 | 6 | 354 | 0.0 | 1.6 | 0.00 | 0.00 | 0.00 | 87 | 1013.2 |
| 20260507010521 | 6 | 0.0 | 0.0 | 0.00 | 0.00 | 0.00 | 86 | 1013.2 | |
| 20260507005530 | 7 | 77 | 0.0 | 1.6 | 0.00 | 0.00 | 0.00 | 86 | 1013.3 |
| 20260507004526 | 7 | 16 | 0.0 | 1.6 | 0.00 | 0.00 | 0.00 | 85 | 1013.3 |
| 20260507003530 | 7 | 43 | 0.0 | 1.6 | 0.00 | 0.00 | 0.00 | 85 | 1013.4 |
| 20260507002521 | 7 | 80 | 0.0 | 1.6 | 0.00 | 0.00 | 0.00 | 84 | 1013.3 |
| 20260507001529 | 7 | 59 | 0.0 | 1.6 | 0.00 | 0.00 | 0.00 | 84 | 1013.2 |
| 20260507000522 | 7 | 108 | 0.0 | 3.2 | 0.00 | 0.00 | 0.00 | 85 | 1013.1 |
| 20260506235529 | 7 | 92 | 0.0 | 1.6 | 0.00 | 0.00 | 0.00 | 84 | 1013.2 |
| 20260506234550 | 7 | 56 | 0.0 | 1.6 | 0.00 | 0.00 | 0.00 | 84 | 1013.2 |
| 20260506233549 | 8 | 56 | 0.0 | 3.2 | 0.00 | 0.00 | 0.00 | 83 | 1013.2 |
| 20260506232525 | 8 | 73 | 0.0 | 3.2 | 0.00 | 0.00 | 0.00 | 83 | 1013.2 |
| 20260506231529 | 8 | 50 | 0.0 | 1.6 | 0.00 | 0.00 | 0.00 | 82 | 1013.2 |
| 20260506230520 | 8 | 146 | 0.0 | 1.6 | 0.00 | 0.00 | 0.00 | 81 | 1013.1 |
| 20260506225528 | 8 | 99 | 0.0 | 1.6 | 0.00 | 0.00 | 0.00 | 81 | 1013.2 |
| 20260506224559 | 8 | 52 | 0.0 | 1.6 | 0.00 | 0.00 | 0.00 | 80 | 1013.0 |
| 20260506223526 | 9 | 68 | 0.0 | 3.2 | 0.00 | 0.00 | 0.00 | 79 | 1013.0 |
| 20260506222539 | 9 | 81 | 1.6 | 4.8 | 0.00 | 0.00 | 0.00 | 79 | 1012.9 |
| 20260506221526 | 10 | 75 | 1.6 | 9.7 | 0.00 | 0.00 | 0.00 | 78 | 1012.8 |
| 20260506220519 | 10 | 71 | 1.6 | 4.8 | 0.00 | 0.00 | 0.00 | 78 | 1012.8 |
| 20260506215525 | 10 | 63 | 1.6 | 9.7 | 0.00 | 0.00 | 0.00 | 77 | 1012.7 |
| 20260506214517 | 10 | 68 | 3.2 | 6.4 | 0.00 | 0.00 | 0.00 | 76 | 1012.7 |
| 20260506213551 | 10 | 67 | 1.6 | 4.8 | 0.00 | 0.00 | 0.00 | 75 | 1012.6 |
| 20260506212517 | 10 | 73 | 1.6 | 4.8 | 0.00 | 0.00 | 0.00 | 74 | 1012.5 |
| 20260506211546 | 10 | 70 | 1.6 | 6.4 | 0.00 | 0.00 | 0.00 | 73 | 1012.4 |
| 20260506210517 | 10 | 80 | 1.6 | 4.8 | 0.00 | 0.00 | 0.00 | 73 | 1012.3 |
| 20260506205525 | 10 | 58 | 1.6 | 4.8 | 0.00 | 0.00 | 0.00 | 73 | 1012.2 |
| 20260506204517 | 11 | 86 | 1.6 | 3.2 | 0.00 | 0.00 | 0.00 | 73 | 1012.1 |
| 20260506203551 | 11 | 51 | 3.2 | 6.4 | 0.00 | 0.00 | 0.00 | 72 | 1012.1 |
| 20260506202517 | 11 | 85 | 1.6 | 4.8 | 0.00 | 0.00 | 0.00 | 71 | 1012.0 |
| 20260506201524 | 11 | 71 | 3.2 | 6.4 | 0.00 | 0.00 | 0.00 | 69 | 1011.9 |
| 20260506200517 | 11 | 68 | 0.0 | 4.8 | 0.00 | 0.00 | 0.00 | 68 | 1011.9 |
| 20260506195524 | 11 | 69 | 3.2 | 9.7 | 0.00 | 0.00 | 0.00 | 67 | 1011.8 |
| 20260506194517 | 11 | 69 | 1.6 | 4.8 | 0.00 | 0.00 | 0.00 | 66 | 1011.7 |
| 20260506193524 | 11 | 75 | 3.2 | 9.7 | 0.00 | 0.00 | 0.00 | 66 | 1011.6 |
| 20260506191516 | 12 | 58 | 3.2 | 12.9 | 0.00 | 0.00 | 0.00 | 67 | 1011.3 |
| 20260506190525 | 12 | 92 | 0.0 | 3.2 | 0.00 | 0.00 | 0.00 | 68 | 1011.1 |
| 20260506185528 | 12 | 63 | 3.2 | 9.7 | 0.00 | 0.00 | 0.00 | 67 | 1010.9 |
| 20260506184521 | 12 | 58 | 4.8 | 12.9 | 0.00 | 0.00 | 0.00 | 68 | 1010.9 |
| 20260506183548 | 12 | 67 | 4.8 | 14.5 | 0.00 | 0.00 | 0.00 | 68 | 1010.7 |
| 20260506182545 | 12 | 83 | 3.2 | 11.3 | 0.00 | 0.00 | 0.00 | 68 | 1010.8 |
| 20260506181527 | 12 | 75 | 3.2 | 6.4 | 0.00 | 0.00 | 0.00 | 68 | 1010.6 |
| 20260506180520 | 12 | 67 | 3.2 | 14.5 | 0.00 | 0.00 | 0.00 | 67 | 1010.5 |
| 20260506175527 | 12 | 92 | 3.2 | 9.7 | 0.00 | 0.00 | 0.00 | 60 | 1010.4 |
| 20260506174520 | 13 | 82 | 1.6 | 1.6 | 0.00 | 0.00 | 0.00 | 58 | 1010.1 |
| 20260506173527 | 12 | 60 | 1.6 | 3.2 | 0.00 | 0.00 | 0.00 | 57 | 1010.1 |
| 20260506172518 | 13 | 74 | 1.6 | 3.2 | 0.00 | 0.00 | 0.00 | 56 | 1010.1 |
| 20260506171527 | 13 | 53 | 1.6 | 3.2 | 0.00 | 0.00 | 0.00 | 56 | 1010.0 |
| 20260506170518 | 13 | 84 | 0.0 | 3.2 | 0.00 | 0.00 | 0.00 | 56 | 1009.8 |
| 20260506165528 | 12 | 59 | 3.2 | 12.9 | 0.00 | 0.00 | 0.00 | 56 | 1009.8 |
| 20260506164519 | 13 | 79 | 3.2 | 9.7 | 0.00 | 0.00 | 0.00 | 57 | 1010.0 |
| 20260506163548 | 13 | 33 | 3.2 | 9.7 | 0.00 | 0.00 | 0.00 | 57 | 1009.9 |
| 20260506162519 | 13 | 54 | 3.2 | 9.7 | 0.00 | 0.00 | 0.00 | 56 | 1009.8 |
| 20260506161526 | 13 | 62 | 3.2 | 9.7 | 0.00 | 0.00 | 0.00 | 55 | 1009.7 |
| 20260506160519 | 13 | 80 | 1.6 | 11.3 | 0.00 | 0.00 | 0.00 | 53 | 1009.8 |
| 20260506155526 | 13 | 74 | 3.2 | 11.3 | 0.00 | 0.00 | 0.00 | 53 | 1009.8 |
| 20260506154517 | 13 | 79 | 3.2 | 6.4 | 0.00 | 0.00 | 0.00 | 52 | 1009.7 |
| 20260506153526 | 13 | 62 | 3.2 | 12.9 | 0.00 | 0.00 | 0.00 | 52 | 1009.7 |
| 20260506152517 | 13 | 77 | 3.2 | 11.3 | 0.00 | 0.00 | 0.00 | 50 | 1009.7 |
| 20260506151526 | 13 | 64 | 1.6 | 6.4 | 0.00 | 0.00 | 0.00 | 49 | 1009.6 |
| 20260506150517 | 13 | 76 | 3.2 | 6.4 | 0.00 | 0.00 | 0.00 | 50 | 1009.6 |
| 20260506145526 | 13 | 49 | 3.2 | 11.3 | 0.00 | 0.00 | 0.00 | 50 | 1009.6 |
| 20260506144538 | 13 | 63 | 1.6 | 9.7 | 0.00 | 0.00 | 0.00 | 50 | 1009.6 |
| 20260506143524 | 13 | 42 | 3.2 | 11.3 | 0.00 | 0.00 | 0.00 | 49 | 1009.6 |
| 20260506142517 | 13 | 51 | 3.2 | 6.4 | 0.00 | 0.00 | 0.00 | 48 | 1009.5 |
| 20260506141526 | 14 | 63 | 3.2 | 6.4 | 0.00 | 0.00 | 0.00 | 47 | 1009.5 |
| 20260506140517 | 13 | 117 | 3.2 | 9.7 | 0.00 | 0.00 | 0.00 | 47 | 1009.4 |
| 20260506135546 | 14 | 52 | 3.2 | 6.4 | 0.00 | 0.00 | 0.00 | 47 | 1009.5 |
| 20260506134517 | 14 | 35 | 3.2 | 9.7 | 0.00 | 0.00 | 0.00 | 46 | 1009.4 |
| 20260506133524 | 14 | 106 | 3.2 | 14.5 | 0.00 | 0.00 | 0.00 | 45 | 1009.3 |
| 20260506132517 | 14 | 37 | 3.2 | 11.3 | 0.00 | 0.00 | 0.00 | 45 | 1009.4 |
| 20260506131525 | 14 | 54 | 3.2 | 11.3 | 0.00 | 0.00 | 0.00 | 46 | 1009.4 |
| 20260506130516 | 14 | 48 | 3.2 | 6.4 | 0.00 | 0.00 | 0.00 | 45 | 1009.4 |
| 20260506125543 | 14 | 40 | 3.2 | 12.9 | 0.00 | 0.00 | 0.00 | 46 | 1009.2 |
| 20260506124532 | 14 | 79 | 3.2 | 12.9 | 0.00 | 0.00 | 0.00 | 46 | 1009.3 |
| 20260506123523 | 13 | 77 | 1.6 | 4.8 | 0.00 | 0.00 | 0.00 | 48 | 1009.3 |
| 20260506122530 | 13 | 87 | 3.2 | 9.7 | 0.00 | 0.00 | 0.00 | 48 | 1009.3 |
| 20260506121543 | 13 | 41 | 4.8 | 11.3 | 0.00 | 0.00 | 0.00 | 48 | 1009.2 |
| 20260506120530 | 14 | 45 | 3.2 | 11.3 | 0.00 | 0.00 | 0.00 | 48 | 1009.1 |
| 20260506115523 | 13 | 55 | 3.2 | 9.7 | 0.00 | 0.00 | 0.00 | 49 | 1009.2 |
| 20260506114530 | 13 | 60 | 3.2 | 9.7 | 0.00 | 0.00 | 0.00 | 48 | 1009.2 |
| 20260506113523 | 13 | 42 | 3.2 | 11.3 | 0.00 | 0.00 | 0.00 | 49 | 1009.1 |
| 20260506112530 | 13 | 71 | 3.2 | 6.4 | 0.00 | 0.00 | 0.00 | 49 | 1009.2 |
| 20260506102023 | 13 | 74 | 4.8 | 11.3 | 0.00 | 0.00 | 0.00 | 55 | 1009.0 |
| 20260506101032 | 13 | 39 | 3.2 | 11.3 | 0.00 | 0.00 | 0.00 | 62 | 1008.8 |
| 20260506100023 | 12 | 84 | 4.8 | 14.5 | 0.00 | 0.00 | 0.00 | 66 | 1008.9 |
| 20260506095030 | 12 | 78 | 1.6 | 9.7 | 0.00 | 0.00 | 0.00 | 69 | 1008.9 |
| 20260506094024 | 12 | 100 | 3.2 | 6.4 | 0.00 | 0.00 | 0.00 | 71 | 1008.8 |
| 20260506093051 | 12 | 69 | 3.2 | 9.7 | 0.00 | 0.00 | 0.00 | 73 | 1008.7 |
| 20260506092042 | 12 | 84 | 6.4 | 17.7 | 0.00 | 0.00 | 0.00 | 73 | 1008.7 |
| 20260506091031 | 12 | 77 | 3.2 | 12.9 | 0.00 | 0.00 | 0.00 | 74 | 1008.7 |
| 20260506090022 | 12 | 92 | 3.2 | 11.3 | 0.00 | 0.00 | 0.00 | 74 | 1008.7 |
| 20260506085031 | 12 | 61 | 4.8 | 11.3 | 0.00 | 0.00 | 0.00 | 74 | 1008.7 |
| 20260506084042 | 12 | 79 | 4.8 | 12.9 | 0.00 | 0.00 | 0.00 | 74 | 1008.6 |
| 20260506083031 | 12 | 63 | 4.8 | 11.3 | 0.00 | 0.00 | 0.00 | 73 | 1008.7 |
| 20260506082042 | 12 | 59 | 4.8 | 12.9 | 0.00 | 0.00 | 0.00 | 71 | 1008.5 |
| 20260506081031 | 12 | 83 | 3.2 | 11.3 | 0.00 | 0.00 | 0.00 | 68 | 1008.6 |
| 20260506073028 | 12 | 76 | 3.2 | 12.9 | 0.00 | 0.00 | 0.00 | 64 | 1008.4 |
| 20260506072021 | 12 | 53 | 1.6 | 4.8 | 0.00 | 0.00 | 0.00 | 66 | 1008.4 |
| 20260506071028 | 12 | 62 | 1.6 | 4.8 | 0.00 | 0.00 | 0.00 | 67 | 1008.3 |